sensor_id;sensor_type;location;lat;lon;timestamp;temperature;humidity
50758;DHT22;36732;47.980;11.652;2024-02-21T00:02:11;9.00;56.90
50758;DHT22;36732;47.980;11.652;2024-02-21T00:04:36;9.00;57.50
50758;DHT22;36732;47.980;11.652;2024-02-21T00:07:04;9.00;56.90
50758;DHT22;36732;47.980;11.652;2024-02-21T00:09:30;9.00;56.90
50758;DHT22;36732;47.980;11.652;2024-02-21T00:11:56;9.00;56.90
50758;DHT22;36732;47.980;11.652;2024-02-21T00:14:22;9.00;56.90
50758;DHT22;36732;47.980;11.652;2024-02-21T00:16:47;9.00;56.90
50758;DHT22;36732;47.980;11.652;2024-02-21T00:19:13;9.00;56.90
50758;DHT22;36732;47.980;11.652;2024-02-21T00:21:40;9.00;56.90
50758;DHT22;36732;47.980;11.652;2024-02-21T00:24:06;9.00;56.90
50758;DHT22;36732;47.980;11.652;2024-02-21T00:26:31;9.00;56.90
50758;DHT22;36732;47.980;11.652;2024-02-21T00:28:57;9.00;56.90
50758;DHT22;36732;47.980;11.652;2024-02-21T00:31:23;9.00;56.90
50758;DHT22;36732;47.980;11.652;2024-02-21T00:33:49;9.00;56.90
50758;DHT22;36732;47.980;11.652;2024-02-21T00:36:16;9.00;56.90
50758;DHT22;36732;47.980;11.652;2024-02-21T00:38:41;9.00;56.90
50758;DHT22;36732;47.980;11.652;2024-02-21T00:41:07;9.00;57.00
50758;DHT22;36732;47.980;11.652;2024-02-21T00:43:33;9.00;57.10
50758;DHT22;36732;47.980;11.652;2024-02-21T00:45:58;9.00;57.10
50758;DHT22;36732;47.980;11.652;2024-02-21T00:48:24;9.00;57.00
50758;DHT22;36732;47.980;11.652;2024-02-21T00:50:50;9.00;57.10
50758;DHT22;36732;47.980;11.652;2024-02-21T00:53:15;9.00;57.10
50758;DHT22;36732;47.980;11.652;2024-02-21T00:55:41;9.00;57.10
50758;DHT22;36732;47.980;11.652;2024-02-21T00:58:08;9.00;57.10
50758;DHT22;36732;47.980;11.652;2024-02-21T01:00:34;9.00;57.10
50758;DHT22;36732;47.980;11.652;2024-02-21T01:03:00;9.00;57.20
50758;DHT22;36732;47.980;11.652;2024-02-21T01:05:25;9.00;57.20
50758;DHT22;36732;47.980;11.652;2024-02-21T01:07:52;9.00;57.20
50758;DHT22;36732;47.980;11.652;2024-02-21T01:10:18;9.00;57.20
50758;DHT22;36732;47.980;11.652;2024-02-21T01:12:44;9.00;57.30
50758;DHT22;36732;47.980;11.652;2024-02-21T01:15:09;9.00;57.30
50758;DHT22;36732;47.980;11.652;2024-02-21T01:17:35;9.00;57.30
50758;DHT22;36732;47.980;11.652;2024-02-21T01:20:02;9.00;57.30
50758;DHT22;36732;47.980;11.652;2024-02-21T01:22:28;9.00;57.30
50758;DHT22;36732;47.980;11.652;2024-02-21T01:24:54;9.00;57.30
50758;DHT22;36732;47.980;11.652;2024-02-21T01:27:19;9.00;57.30
50758;DHT22;36732;47.980;11.652;2024-02-21T01:29:46;9.00;57.30
50758;DHT22;36732;47.980;11.652;2024-02-21T01:32:13;9.00;57.30
50758;DHT22;36732;47.980;11.652;2024-02-21T01:34:38;9.00;57.30
50758;DHT22;36732;47.980;11.652;2024-02-21T01:37:04;8.90;57.30
50758;DHT22;36732;47.980;11.652;2024-02-21T01:39:32;9.00;57.40
50758;DHT22;36732;47.980;11.652;2024-02-21T01:41:58;9.00;57.40
50758;DHT22;36732;47.980;11.652;2024-02-21T01:44:24;9.00;57.40
50758;DHT22;36732;47.980;11.652;2024-02-21T01:46:50;9.00;57.40
50758;DHT22;36732;47.980;11.652;2024-02-21T01:49:17;9.00;57.40
50758;DHT22;36732;47.980;11.652;2024-02-21T01:51:44;9.00;57.50
50758;DHT22;36732;47.980;11.652;2024-02-21T01:54:11;8.90;57.40
50758;DHT22;36732;47.980;11.652;2024-02-21T01:56:39;9.00;57.40
50758;DHT22;36732;47.980;11.652;2024-02-21T01:59:05;9.00;57.50
50758;DHT22;36732;47.980;11.652;2024-02-21T02:01:30;9.00;57.50
50758;DHT22;36732;47.980;11.652;2024-02-21T02:03:57;9.00;57.50
50758;DHT22;36732;47.980;11.652;2024-02-21T02:06:24;9.00;57.50
50758;DHT22;36732;47.980;11.652;2024-02-21T02:08:50;9.00;57.50
50758;DHT22;36732;47.980;11.652;2024-02-21T02:11:16;9.00;57.50
50758;DHT22;36732;47.980;11.652;2024-02-21T02:13:42;9.00;57.50
50758;DHT22;36732;47.980;11.652;2024-02-21T02:16:09;9.00;57.50
50758;DHT22;36732;47.980;11.652;2024-02-21T02:18:34;9.00;57.60
50758;DHT22;36732;47.980;11.652;2024-02-21T02:21:00;9.00;57.60
50758;DHT22;36732;47.980;11.652;2024-02-21T02:23:32;9.00;57.60
50758;DHT22;36732;47.980;11.652;2024-02-21T02:25:59;9.00;57.60
50758;DHT22;36732;47.980;11.652;2024-02-21T02:28:26;8.90;57.50
50758;DHT22;36732;47.980;11.652;2024-02-21T02:30:52;9.00;57.60
50758;DHT22;36732;47.980;11.652;2024-02-21T02:33:18;9.00;57.70
50758;DHT22;36732;47.980;11.652;2024-02-21T02:35:44;9.00;57.60
50758;DHT22;36732;47.980;11.652;2024-02-21T02:38:10;9.00;57.60
50758;DHT22;36732;47.980;11.652;2024-02-21T02:40:38;9.00;57.70
50758;DHT22;36732;47.980;11.652;2024-02-21T02:43:04;9.00;57.70
50758;DHT22;36732;47.980;11.652;2024-02-21T02:45:30;9.00;57.60
50758;DHT22;36732;47.980;11.652;2024-02-21T02:47:57;8.90;57.60
50758;DHT22;36732;47.980;11.652;2024-02-21T02:50:27;9.00;57.60
50758;DHT22;36732;47.980;11.652;2024-02-21T02:52:53;9.00;57.60
50758;DHT22;36732;47.980;11.652;2024-02-21T02:55:19;9.00;57.70
50758;DHT22;36732;47.980;11.652;2024-02-21T02:57:46;9.00;57.70
50758;DHT22;36732;47.980;11.652;2024-02-21T03:00:12;9.00;57.70
50758;DHT22;36732;47.980;11.652;2024-02-21T03:02:41;9.00;57.70
50758;DHT22;36732;47.980;11.652;2024-02-21T03:05:19;9.00;57.70
50758;DHT22;36732;47.980;11.652;2024-02-21T03:07:46;9.00;57.70
50758;DHT22;36732;47.980;11.652;2024-02-21T03:10:12;9.00;57.70
50758;DHT22;36732;47.980;11.652;2024-02-21T03:12:39;9.00;57.80
50758;DHT22;36732;47.980;11.652;2024-02-21T03:15:05;9.00;57.80
50758;DHT22;36732;47.980;11.652;2024-02-21T03:17:32;9.00;57.80
50758;DHT22;36732;47.980;11.652;2024-02-21T03:20:00;9.00;57.90
50758;DHT22;36732;47.980;11.652;2024-02-21T03:22:26;9.00;57.90
50758;DHT22;36732;47.980;11.652;2024-02-21T03:24:53;9.00;57.90
50758;DHT22;36732;47.980;11.652;2024-02-21T03:27:18;9.00;57.90
50758;DHT22;36732;47.980;11.652;2024-02-21T03:29:44;9.00;58.00
50758;DHT22;36732;47.980;11.652;2024-02-21T03:32:10;9.00;57.90
50758;DHT22;36732;47.980;11.652;2024-02-21T03:34:35;9.00;57.90
50758;DHT22;36732;47.980;11.652;2024-02-21T03:37:01;9.00;57.90
50758;DHT22;36732;47.980;11.652;2024-02-21T03:39:27;9.00;57.90
50758;DHT22;36732;47.980;11.652;2024-02-21T03:41:53;9.00;57.90
50758;DHT22;36732;47.980;11.652;2024-02-21T03:44:19;9.00;57.80
50758;DHT22;36732;47.980;11.652;2024-02-21T03:46:44;9.00;57.90
50758;DHT22;36732;47.980;11.652;2024-02-21T03:49:10;9.00;57.90
50758;DHT22;36732;47.980;11.652;2024-02-21T03:51:36;9.00;57.90
50758;DHT22;36732;47.980;11.652;2024-02-21T03:54:01;9.00;58.00
50758;DHT22;36732;47.980;11.652;2024-02-21T03:56:27;9.00;58.00
50758;DHT22;36732;47.980;11.652;2024-02-21T03:58:53;9.00;57.90
50758;DHT22;36732;47.980;11.652;2024-02-21T04:01:18;9.00;57.90
50758;DHT22;36732;47.980;11.652;2024-02-21T04:03:44;9.00;58.00
50758;DHT22;36732;47.980;11.652;2024-02-21T04:06:10;9.00;57.90
50758;DHT22;36732;47.980;11.652;2024-02-21T04:08:36;9.00;57.90
50758;DHT22;36732;47.980;11.652;2024-02-21T04:11:01;9.00;57.90
50758;DHT22;36732;47.980;11.652;2024-02-21T04:13:27;8.90;57.90
50758;DHT22;36732;47.980;11.652;2024-02-21T04:15:53;8.90;57.90
50758;DHT22;36732;47.980;11.652;2024-02-21T04:18:19;9.00;57.90
50758;DHT22;36732;47.980;11.652;2024-02-21T04:20:44;8.90;57.90
50758;DHT22;36732;47.980;11.652;2024-02-21T04:23:10;8.90;57.90
50758;DHT22;36732;47.980;11.652;2024-02-21T04:25:36;8.90;57.90
50758;DHT22;36732;47.980;11.652;2024-02-21T04:28:02;8.90;57.90
50758;DHT22;36732;47.980;11.652;2024-02-21T04:30:28;9.00;57.90
50758;DHT22;36732;47.980;11.652;2024-02-21T04:32:54;8.90;57.90
50758;DHT22;36732;47.980;11.652;2024-02-21T04:35:20;8.90;57.90
50758;DHT22;36732;47.980;11.652;2024-02-21T04:37:46;8.90;57.80
50758;DHT22;36732;47.980;11.652;2024-02-21T04:40:11;8.90;57.90
50758;DHT22;36732;47.980;11.652;2024-02-21T04:42:38;8.90;57.80
50758;DHT22;36732;47.980;11.652;2024-02-21T04:45:04;8.90;57.80
50758;DHT22;36732;47.980;11.652;2024-02-21T04:47:30;8.90;57.80
50758;DHT22;36732;47.980;11.652;2024-02-21T04:49:56;8.90;57.80
50758;DHT22;36732;47.980;11.652;2024-02-21T04:52:22;8.90;57.80
50758;DHT22;36732;47.980;11.652;2024-02-21T04:54:47;8.90;57.80
50758;DHT22;36732;47.980;11.652;2024-02-21T04:57:14;8.90;57.80
50758;DHT22;36732;47.980;11.652;2024-02-21T04:59:45;8.90;57.70
50758;DHT22;36732;47.980;11.652;2024-02-21T05:02:13;8.90;57.70
50758;DHT22;36732;47.980;11.652;2024-02-21T05:04:39;8.90;57.70
50758;DHT22;36732;47.980;11.652;2024-02-21T05:07:06;8.90;57.60
50758;DHT22;36732;47.980;11.652;2024-02-21T05:09:32;8.90;57.60
50758;DHT22;36732;47.980;11.652;2024-02-21T05:11:58;8.90;57.60
50758;DHT22;36732;47.980;11.652;2024-02-21T05:14:24;8.90;57.50
50758;DHT22;36732;47.980;11.652;2024-02-21T05:16:52;8.90;57.50
50758;DHT22;36732;47.980;11.652;2024-02-21T05:19:18;8.90;57.40
50758;DHT22;36732;47.980;11.652;2024-02-21T05:21:43;8.90;57.40
50758;DHT22;36732;47.980;11.652;2024-02-21T05:24:09;8.90;57.30
50758;DHT22;36732;47.980;11.652;2024-02-21T05:26:35;8.90;57.20
50758;DHT22;36732;47.980;11.652;2024-02-21T05:29:01;8.90;57.20
50758;DHT22;36732;47.980;11.652;2024-02-21T05:31:54;8.80;57.00
50758;DHT22;36732;47.980;11.652;2024-02-21T05:34:21;8.80;56.70
50758;DHT22;36732;47.980;11.652;2024-02-21T05:36:47;8.80;56.90
50758;DHT22;36732;47.980;11.652;2024-02-21T05:39:15;8.80;56.80
50758;DHT22;36732;47.980;11.652;2024-02-21T05:41:41;8.80;56.90
50758;DHT22;36732;47.980;11.652;2024-02-21T05:44:07;8.80;56.80
50758;DHT22;36732;47.980;11.652;2024-02-21T05:46:33;8.80;56.70
50758;DHT22;36732;47.980;11.652;2024-02-21T05:48:59;8.70;56.70
50758;DHT22;36732;47.980;11.652;2024-02-21T05:51:25;8.70;56.70
50758;DHT22;36732;47.980;11.652;2024-02-21T05:53:50;8.70;56.70
50758;DHT22;36732;47.980;11.652;2024-02-21T05:56:16;8.70;56.60
50758;DHT22;36732;47.980;11.652;2024-02-21T05:58:43;8.70;56.60
50758;DHT22;36732;47.980;11.652;2024-02-21T06:01:09;8.70;56.60
50758;DHT22;36732;47.980;11.652;2024-02-21T06:03:35;8.70;56.60
50758;DHT22;36732;47.980;11.652;2024-02-21T06:06:02;8.70;56.60
50758;DHT22;36732;47.980;11.652;2024-02-21T06:08:28;8.60;56.50
50758;DHT22;36732;47.980;11.652;2024-02-21T06:10:53;8.60;56.40
50758;DHT22;36732;47.980;11.652;2024-02-21T06:13:26;8.60;56.40
50758;DHT22;36732;47.980;11.652;2024-02-21T06:15:52;8.60;56.40
50758;DHT22;36732;47.980;11.652;2024-02-21T06:18:18;8.50;56.30
50758;DHT22;36732;47.980;11.652;2024-02-21T06:20:45;8.50;56.30
50758;DHT22;36732;47.980;11.652;2024-02-21T06:23:12;8.50;56.40
50758;DHT22;36732;47.980;11.652;2024-02-21T06:25:38;8.50;56.30
50758;DHT22;36732;47.980;11.652;2024-02-21T06:28:05;8.50;56.20
50758;DHT22;36732;47.980;11.652;2024-02-21T06:30:31;8.50;56.30
50758;DHT22;36732;47.980;11.652;2024-02-21T06:32:57;8.50;56.20
50758;DHT22;36732;47.980;11.652;2024-02-21T06:35:23;8.50;56.30
50758;DHT22;36732;47.980;11.652;2024-02-21T06:37:51;8.50;56.20
50758;DHT22;36732;47.980;11.652;2024-02-21T06:40:21;8.50;56.20
50758;DHT22;36732;47.980;11.652;2024-02-21T06:42:48;8.50;56.10
50758;DHT22;36732;47.980;11.652;2024-02-21T06:45:14;8.50;56.10
50758;DHT22;36732;47.980;11.652;2024-02-21T06:47:40;8.50;56.10
50758;DHT22;36732;47.980;11.652;2024-02-21T06:50:06;8.50;56.10
50758;DHT22;36732;47.980;11.652;2024-02-21T06:52:31;8.50;56.00
50758;DHT22;36732;47.980;11.652;2024-02-21T06:54:57;8.50;56.10
50758;DHT22;36732;47.980;11.652;2024-02-21T06:57:23;8.50;56.10
50758;DHT22;36732;47.980;11.652;2024-02-21T06:59:49;8.50;56.20
50758;DHT22;36732;47.980;11.652;2024-02-21T07:02:15;8.50;56.10
50758;DHT22;36732;47.980;11.652;2024-02-21T07:04:40;8.50;56.10
50758;DHT22;36732;47.980;11.652;2024-02-21T07:07:06;8.50;56.20
50758;DHT22;36732;47.980;11.652;2024-02-21T07:09:32;8.50;56.20
50758;DHT22;36732;47.980;11.652;2024-02-21T07:11:58;8.60;56.30
50758;DHT22;36732;47.980;11.652;2024-02-21T07:14:24;8.60;56.30
50758;DHT22;36732;47.980;11.652;2024-02-21T07:16:51;8.60;56.30
50758;DHT22;36732;47.980;11.652;2024-02-21T07:19:16;8.60;56.20
50758;DHT22;36732;47.980;11.652;2024-02-21T07:21:42;8.60;56.30
50758;DHT22;36732;47.980;11.652;2024-02-21T07:24:08;8.60;56.30
50758;DHT22;36732;47.980;11.652;2024-02-21T07:26:34;8.60;56.40
50758;DHT22;36732;47.980;11.652;2024-02-21T07:29:00;8.60;56.30
50758;DHT22;36732;47.980;11.652;2024-02-21T07:31:26;8.60;56.30
50758;DHT22;36732;47.980;11.652;2024-02-21T07:33:51;8.60;56.30
50758;DHT22;36732;47.980;11.652;2024-02-21T07:36:29;8.70;56.40
50758;DHT22;36732;47.980;11.652;2024-02-21T07:38:58;8.70;56.40
50758;DHT22;36732;47.980;11.652;2024-02-21T07:41:25;8.70;56.50
50758;DHT22;36732;47.980;11.652;2024-02-21T07:43:51;8.70;56.60
50758;DHT22;36732;47.980;11.652;2024-02-21T07:46:20;8.70;56.70
50758;DHT22;36732;47.980;11.652;2024-02-21T07:48:46;8.70;56.60
50758;DHT22;36732;47.980;11.652;2024-02-21T07:51:12;8.70;56.70
50758;DHT22;36732;47.980;11.652;2024-02-21T07:53:41;8.70;56.50
50758;DHT22;36732;47.980;11.652;2024-02-21T07:56:13;8.70;56.40
50758;DHT22;36732;47.980;11.652;2024-02-21T07:58:40;8.80;56.40
50758;DHT22;36732;47.980;11.652;2024-02-21T08:01:06;8.80;56.40
50758;DHT22;36732;47.980;11.652;2024-02-21T08:03:32;8.80;56.30
50758;DHT22;36732;47.980;11.652;2024-02-21T08:05:57;8.80;56.40
50758;DHT22;36732;47.980;11.652;2024-02-21T08:08:23;8.80;56.20
50758;DHT22;36732;47.980;11.652;2024-02-21T08:10:50;8.80;56.30
50758;DHT22;36732;47.980;11.652;2024-02-21T08:13:16;8.90;56.30
50758;DHT22;36732;47.980;11.652;2024-02-21T08:15:41;8.90;56.20
50758;DHT22;36732;47.980;11.652;2024-02-21T08:18:08;8.90;56.10
50758;DHT22;36732;47.980;11.652;2024-02-21T08:20:34;8.90;56.00
50758;DHT22;36732;47.980;11.652;2024-02-21T08:23:00;8.90;56.00
50758;DHT22;36732;47.980;11.652;2024-02-21T08:25:26;8.90;55.90
50758;DHT22;36732;47.980;11.652;2024-02-21T08:27:56;8.90;56.00
50758;DHT22;36732;47.980;11.652;2024-02-21T08:30:23;9.00;56.00
50758;DHT22;36732;47.980;11.652;2024-02-21T08:32:48;9.00;56.10
50758;DHT22;36732;47.980;11.652;2024-02-21T08:35:14;9.00;56.20
50758;DHT22;36732;47.980;11.652;2024-02-21T08:37:40;9.00;56.30
50758;DHT22;36732;47.980;11.652;2024-02-21T08:40:08;9.00;57.00
50758;DHT22;36732;47.980;11.652;2024-02-21T08:42:41;9.00;56.40
50758;DHT22;36732;47.980;11.652;2024-02-21T08:45:07;9.00;56.40
50758;DHT22;36732;47.980;11.652;2024-02-21T08:47:33;9.00;56.50
50758;DHT22;36732;47.980;11.652;2024-02-21T08:50:01;9.10;56.70
50758;DHT22;36732;47.980;11.652;2024-02-21T08:52:27;9.00;56.60
50758;DHT22;36732;47.980;11.652;2024-02-21T08:54:52;9.10;56.60
50758;DHT22;36732;47.980;11.652;2024-02-21T08:57:20;9.10;56.50
50758;DHT22;36732;47.980;11.652;2024-02-21T08:59:46;9.10;56.40
50758;DHT22;36732;47.980;11.652;2024-02-21T09:02:13;9.10;56.40
50758;DHT22;36732;47.980;11.652;2024-02-21T09:04:39;9.10;56.40
50758;DHT22;36732;47.980;11.652;2024-02-21T09:07:04;9.10;56.30
50758;DHT22;36732;47.980;11.652;2024-02-21T09:09:30;9.20;56.40
50758;DHT22;36732;47.980;11.652;2024-02-21T09:11:58;9.20;56.30
50758;DHT22;36732;47.980;11.652;2024-02-21T09:14:34;9.20;56.20
50758;DHT22;36732;47.980;11.652;2024-02-21T09:17:01;9.20;55.90
50758;DHT22;36732;47.980;11.652;2024-02-21T09:19:26;9.20;55.80
50758;DHT22;36732;47.980;11.652;2024-02-21T09:21:52;9.30;55.60
50758;DHT22;36732;47.980;11.652;2024-02-21T09:24:18;9.30;55.50
50758;DHT22;36732;47.980;11.652;2024-02-21T09:26:43;9.30;55.40
50758;DHT22;36732;47.980;11.652;2024-02-21T09:29:09;9.30;55.40
50758;DHT22;36732;47.980;11.652;2024-02-21T09:31:35;9.30;55.30
50758;DHT22;36732;47.980;11.652;2024-02-21T09:34:01;9.30;55.20
50758;DHT22;36732;47.980;11.652;2024-02-21T09:36:27;9.40;55.10
50758;DHT22;36732;47.980;11.652;2024-02-21T09:38:53;9.40;55.00
50758;DHT22;36732;47.980;11.652;2024-02-21T09:41:26;9.40;55.00
50758;DHT22;36732;47.980;11.652;2024-02-21T09:43:53;9.40;54.60
50758;DHT22;36732;47.980;11.652;2024-02-21T09:46:24;9.40;54.80
50758;DHT22;36732;47.980;11.652;2024-02-21T09:49:14;9.40;54.10
50758;DHT22;36732;47.980;11.652;2024-02-21T09:51:54;9.40;54.00
50758;DHT22;36732;47.980;11.652;2024-02-21T09:54:21;9.50;54.30
50758;DHT22;36732;47.980;11.652;2024-02-21T09:56:47;9.50;54.00
50758;DHT22;36732;47.980;11.652;2024-02-21T09:59:16;9.50;54.00
50758;DHT22;36732;47.980;11.652;2024-02-21T10:01:43;9.50;53.80
50758;DHT22;36732;47.980;11.652;2024-02-21T10:04:09;9.50;53.90
50758;DHT22;36732;47.980;11.652;2024-02-21T10:06:36;9.50;53.70
50758;DHT22;36732;47.980;11.652;2024-02-21T10:09:03;9.50;53.70
50758;DHT22;36732;47.980;11.652;2024-02-21T10:11:29;9.60;53.70
50758;DHT22;36732;47.980;11.652;2024-02-21T10:14:08;9.60;53.70
50758;DHT22;36732;47.980;11.652;2024-02-21T10:16:33;9.60;53.20
50758;DHT22;36732;47.980;11.652;2024-02-21T10:19:00;9.60;53.60
50758;DHT22;36732;47.980;11.652;2024-02-21T10:21:26;9.60;53.20
50758;DHT22;36732;47.980;11.652;2024-02-21T10:23:51;9.60;53.40
50758;DHT22;36732;47.980;11.652;2024-02-21T10:26:19;9.70;53.50
50758;DHT22;36732;47.980;11.652;2024-02-21T10:28:46;9.70;53.20
50758;DHT22;36732;47.980;11.652;2024-02-21T10:31:28;9.70;53.20
50758;DHT22;36732;47.980;11.652;2024-02-21T10:33:58;9.70;52.60
50758;DHT22;36732;47.980;11.652;2024-02-21T10:36:30;9.70;53.10
50758;DHT22;36732;47.980;11.652;2024-02-21T10:38:57;9.80;53.10
50758;DHT22;36732;47.980;11.652;2024-02-21T10:41:24;9.80;53.00
50758;DHT22;36732;47.980;11.652;2024-02-21T10:43:51;9.80;52.80
50758;DHT22;36732;47.980;11.652;2024-02-21T10:46:22;9.80;52.80
50758;DHT22;36732;47.980;11.652;2024-02-21T10:51:34;9.90;52.40
50758;DHT22;36732;47.980;11.652;2024-02-21T10:56:46;9.90;52.60
50758;DHT22;36732;47.980;11.652;2024-02-21T10:59:13;9.90;52.40
50758;DHT22;36732;47.980;11.652;2024-02-21T11:01:39;9.90;52.30
50758;DHT22;36732;47.980;11.652;2024-02-21T11:04:06;10.00;52.90
50758;DHT22;36732;47.980;11.652;2024-02-21T11:06:35;10.00;52.10
50758;DHT22;36732;47.980;11.652;2024-02-21T11:09:06;10.00;52.10
50758;DHT22;36732;47.980;11.652;2024-02-21T11:11:40;10.00;52.00
50758;DHT22;36732;47.980;11.652;2024-02-21T11:14:11;10.00;51.50
50758;DHT22;36732;47.980;11.652;2024-02-21T11:16:43;10.00;51.60
50758;DHT22;36732;47.980;11.652;2024-02-21T11:19:18;10.10;51.80
50758;DHT22;36732;47.980;11.652;2024-02-21T11:21:47;10.10;51.50
50758;DHT22;36732;47.980;11.652;2024-02-21T11:24:31;10.10;51.40
50758;DHT22;36732;47.980;11.652;2024-02-21T11:29:55;10.20;50.60
50758;DHT22;36732;47.980;11.652;2024-02-21T11:32:21;10.20;50.50
50758;DHT22;36732;47.980;11.652;2024-02-21T11:37:27;10.20;51.10
50758;DHT22;36732;47.980;11.652;2024-02-21T11:39:57;10.30;51.70
50758;DHT22;36732;47.980;11.652;2024-02-21T11:42:25;10.30;51.60
50758;DHT22;36732;47.980;11.652;2024-02-21T11:44:52;10.30;51.60
50758;DHT22;36732;47.980;11.652;2024-02-21T11:47:18;10.30;51.70
50758;DHT22;36732;47.980;11.652;2024-02-21T11:49:48;10.40;51.80
50758;DHT22;36732;47.980;11.652;2024-02-21T11:52:16;10.40;51.50
50758;DHT22;36732;47.980;11.652;2024-02-21T11:54:44;10.40;51.60
50758;DHT22;36732;47.980;11.652;2024-02-21T11:57:10;10.40;51.70
50758;DHT22;36732;47.980;11.652;2024-02-21T11:59:36;10.50;51.60
50758;DHT22;36732;47.980;11.652;2024-02-21T12:02:02;10.50;51.60
50758;DHT22;36732;47.980;11.652;2024-02-21T12:04:29;10.50;51.40
50758;DHT22;36732;47.980;11.652;2024-02-21T12:06:57;10.50;51.60
50758;DHT22;36732;47.980;11.652;2024-02-21T12:09:23;10.60;51.30
50758;DHT22;36732;47.980;11.652;2024-02-21T12:12:03;10.60;51.20
50758;DHT22;36732;47.980;11.652;2024-02-21T12:14:31;10.60;50.80
50758;DHT22;36732;47.980;11.652;2024-02-21T12:17:02;10.60;50.90
50758;DHT22;36732;47.980;11.652;2024-02-21T12:19:32;10.60;50.60
50758;DHT22;36732;47.980;11.652;2024-02-21T12:21:59;10.70;50.90
50758;DHT22;36732;47.980;11.652;2024-02-21T12:24:27;10.70;50.80
50758;DHT22;36732;47.980;11.652;2024-02-21T12:26:54;10.70;50.70
50758;DHT22;36732;47.980;11.652;2024-02-21T12:29:21;10.70;50.50
50758;DHT22;36732;47.980;11.652;2024-02-21T12:31:47;10.70;50.40
50758;DHT22;36732;47.980;11.652;2024-02-21T12:34:15;10.70;50.20
50758;DHT22;36732;47.980;11.652;2024-02-21T12:36:45;10.70;49.90
50758;DHT22;36732;47.980;11.652;2024-02-21T12:39:14;10.80;50.00
50758;DHT22;36732;47.980;11.652;2024-02-21T12:41:40;10.80;50.20
50758;DHT22;36732;47.980;11.652;2024-02-21T12:44:09;10.80;50.20
50758;DHT22;36732;47.980;11.652;2024-02-21T12:46:37;10.80;50.00
50758;DHT22;36732;47.980;11.652;2024-02-21T12:49:03;10.80;50.20
50758;DHT22;36732;47.980;11.652;2024-02-21T12:51:30;10.80;50.10
50758;DHT22;36732;47.980;11.652;2024-02-21T12:53:57;10.80;50.10
50758;DHT22;36732;47.980;11.652;2024-02-21T12:56:22;10.90;50.10
50758;DHT22;36732;47.980;11.652;2024-02-21T12:58:49;10.90;49.70
50758;DHT22;36732;47.980;11.652;2024-02-21T13:01:16;10.90;49.60
50758;DHT22;36732;47.980;11.652;2024-02-21T13:03:42;10.90;49.50
50758;DHT22;36732;47.980;11.652;2024-02-21T13:06:07;10.90;49.60
50758;DHT22;36732;47.980;11.652;2024-02-21T13:08:36;10.90;49.60
50758;DHT22;36732;47.980;11.652;2024-02-21T13:11:02;10.90;49.50
50758;DHT22;36732;47.980;11.652;2024-02-21T13:13:28;10.90;49.30
50758;DHT22;36732;47.980;11.652;2024-02-21T13:15:54;10.90;49.20
50758;DHT22;36732;47.980;11.652;2024-02-21T13:18:20;11.00;49.20
50758;DHT22;36732;47.980;11.652;2024-02-21T13:20:45;11.00;49.20
50758;DHT22;36732;47.980;11.652;2024-02-21T13:23:11;11.00;49.20
50758;DHT22;36732;47.980;11.652;2024-02-21T13:25:37;11.00;49.00
50758;DHT22;36732;47.980;11.652;2024-02-21T13:28:02;11.00;49.20
50758;DHT22;36732;47.980;11.652;2024-02-21T13:30:29;11.10;49.10
50758;DHT22;36732;47.980;11.652;2024-02-21T13:32:54;11.00;49.00
50758;DHT22;36732;47.980;11.652;2024-02-21T13:35:20;11.10;49.00
50758;DHT22;36732;47.980;11.652;2024-02-21T13:37:46;11.10;48.80
50758;DHT22;36732;47.980;11.652;2024-02-21T13:40:12;11.10;48.80
50758;DHT22;36732;47.980;11.652;2024-02-21T13:42:39;11.10;48.80
50758;DHT22;36732;47.980;11.652;2024-02-21T13:45:05;11.10;48.60
50758;DHT22;36732;47.980;11.652;2024-02-21T13:47:32;11.10;48.70
50758;DHT22;36732;47.980;11.652;2024-02-21T13:49:58;11.10;48.70
50758;DHT22;36732;47.980;11.652;2024-02-21T13:52:24;11.10;48.50
50758;DHT22;36732;47.980;11.652;2024-02-21T13:54:53;11.10;48.60
50758;DHT22;36732;47.980;11.652;2024-02-21T13:57:19;11.10;48.60
50758;DHT22;36732;47.980;11.652;2024-02-21T13:59:44;11.10;48.70
50758;DHT22;36732;47.980;11.652;2024-02-21T14:02:10;11.20;48.60
50758;DHT22;36732;47.980;11.652;2024-02-21T14:04:36;11.20;48.70
50758;DHT22;36732;47.980;11.652;2024-02-21T14:07:01;11.20;48.80
50758;DHT22;36732;47.980;11.652;2024-02-21T14:09:27;11.20;49.00
50758;DHT22;36732;47.980;11.652;2024-02-21T14:11:55;11.20;49.20
50758;DHT22;36732;47.980;11.652;2024-02-21T14:14:21;11.20;49.40
50758;DHT22;36732;47.980;11.652;2024-02-21T14:16:47;11.20;49.60
50758;DHT22;36732;47.980;11.652;2024-02-21T14:19:14;11.30;49.80
50758;DHT22;36732;47.980;11.652;2024-02-21T14:21:39;11.30;49.80
50758;DHT22;36732;47.980;11.652;2024-02-21T14:24:06;11.30;49.90
50758;DHT22;36732;47.980;11.652;2024-02-21T14:26:32;11.30;50.10
50758;DHT22;36732;47.980;11.652;2024-02-21T14:28:58;11.30;50.10
50758;DHT22;36732;47.980;11.652;2024-02-21T14:31:24;11.40;49.90
50758;DHT22;36732;47.980;11.652;2024-02-21T14:33:51;11.40;49.90
50758;DHT22;36732;47.980;11.652;2024-02-21T14:36:17;11.40;49.90
50758;DHT22;36732;47.980;11.652;2024-02-21T14:38:43;11.40;49.80
50758;DHT22;36732;47.980;11.652;2024-02-21T14:41:09;11.40;49.80
50758;DHT22;36732;47.980;11.652;2024-02-21T14:43:38;11.50;49.90
50758;DHT22;36732;47.980;11.652;2024-02-21T14:46:04;11.50;49.90
50758;DHT22;36732;47.980;11.652;2024-02-21T14:48:31;11.50;49.90
50758;DHT22;36732;47.980;11.652;2024-02-21T14:50:58;11.50;49.90
50758;DHT22;36732;47.980;11.652;2024-02-21T14:53:24;11.50;50.50
50758;DHT22;36732;47.980;11.652;2024-02-21T14:55:50;11.50;49.90
50758;DHT22;36732;47.980;11.652;2024-02-21T14:58:16;11.50;49.90
50758;DHT22;36732;47.980;11.652;2024-02-21T15:00:45;11.50;50.00
50758;DHT22;36732;47.980;11.652;2024-02-21T15:03:12;11.60;49.60
50758;DHT22;36732;47.980;11.652;2024-02-21T15:05:41;11.60;49.40
50758;DHT22;36732;47.980;11.652;2024-02-21T15:08:07;11.60;49.20
50758;DHT22;36732;47.980;11.652;2024-02-21T15:10:35;11.60;49.30
50758;DHT22;36732;47.980;11.652;2024-02-21T15:13:01;11.60;49.10
50758;DHT22;36732;47.980;11.652;2024-02-21T15:15:27;11.60;48.90
50758;DHT22;36732;47.980;11.652;2024-02-21T15:17:52;11.60;49.00
50758;DHT22;36732;47.980;11.652;2024-02-21T15:20:18;11.70;48.90
50758;DHT22;36732;47.980;11.652;2024-02-21T15:22:44;11.70;48.90
50758;DHT22;36732;47.980;11.652;2024-02-21T15:25:10;11.60;48.80
50758;DHT22;36732;47.980;11.652;2024-02-21T15:27:46;11.60;48.70
50758;DHT22;36732;47.980;11.652;2024-02-21T15:30:13;11.60;48.60
50758;DHT22;36732;47.980;11.652;2024-02-21T15:32:39;11.60;48.40
50758;DHT22;36732;47.980;11.652;2024-02-21T15:35:08;11.70;48.30
50758;DHT22;36732;47.980;11.652;2024-02-21T15:37:35;11.60;48.10